sensor_id;sensor_type;location;lat;lon;timestamp;temperature;humidity
44117;DHT22;29781;49.480;8.512;2023-04-01T00:00:46;11.00;99.90
44117;DHT22;29781;49.480;8.512;2023-04-01T00:03:12;11.00;99.90
44117;DHT22;29781;49.480;8.512;2023-04-01T00:05:37;11.00;99.90
44117;DHT22;29781;49.480;8.512;2023-04-01T00:08:03;11.00;99.90
44117;DHT22;29781;49.480;8.512;2023-04-01T00:10:28;11.00;99.90
44117;DHT22;29781;49.480;8.512;2023-04-01T00:12:54;11.00;99.90
44117;DHT22;29781;49.480;8.512;2023-04-01T00:15:20;10.90;99.90
44117;DHT22;29781;49.480;8.512;2023-04-01T00:17:46;10.90;99.90
44117;DHT22;29781;49.480;8.512;2023-04-01T00:20:12;10.90;99.90
44117;DHT22;29781;49.480;8.512;2023-04-01T00:22:37;10.90;99.90
44117;DHT22;29781;49.480;8.512;2023-04-01T00:25:04;10.90;99.90
44117;DHT22;29781;49.480;8.512;2023-04-01T00:27:29;10.90;99.90
44117;DHT22;29781;49.480;8.512;2023-04-01T00:29:55;10.90;99.90
44117;DHT22;29781;49.480;8.512;2023-04-01T00:32:21;11.00;99.90
44117;DHT22;29781;49.480;8.512;2023-04-01T00:34:50;11.00;99.90
44117;DHT22;29781;49.480;8.512;2023-04-01T00:37:17;11.00;99.90
44117;DHT22;29781;49.480;8.512;2023-04-01T00:39:42;11.00;99.90
44117;DHT22;29781;49.480;8.512;2023-04-01T00:42:09;11.00;99.90
44117;DHT22;29781;49.480;8.512;2023-04-01T00:44:37;11.00;99.90
44117;DHT22;29781;49.480;8.512;2023-04-01T00:47:04;11.00;99.90
44117;DHT22;29781;49.480;8.512;2023-04-01T00:49:33;11.00;99.90
44117;DHT22;29781;49.480;8.512;2023-04-01T00:52:02;11.00;99.90
44117;DHT22;29781;49.480;8.512;2023-04-01T00:54:29;11.10;99.90
44117;DHT22;29781;49.480;8.512;2023-04-01T00:57:02;11.10;99.90
44117;DHT22;29781;49.480;8.512;2023-04-01T00:59:33;11.00;99.90
44117;DHT22;29781;49.480;8.512;2023-04-01T01:02:01;11.00;99.90
44117;DHT22;29781;49.480;8.512;2023-04-01T01:04:33;11.10;99.90
44117;DHT22;29781;49.480;8.512;2023-04-01T01:07:29;11.10;99.90
44117;DHT22;29781;49.480;8.512;2023-04-01T01:10:17;11.10;99.90
44117;DHT22;29781;49.480;8.512;2023-04-01T01:12:48;11.00;99.90
44117;DHT22;29781;49.480;8.512;2023-04-01T01:15:25;11.10;99.90
44117;DHT22;29781;49.480;8.512;2023-04-01T01:20:45;11.00;99.90
44117;DHT22;29781;49.480;8.512;2023-04-01T01:23:23;11.00;99.90
44117;DHT22;29781;49.480;8.512;2023-04-01T01:26:32;11.00;99.90
44117;DHT22;29781;49.480;8.512;2023-04-01T01:37:40;11.00;99.90
44117;DHT22;29781;49.480;8.512;2023-04-01T01:40:08;10.90;99.90
44117;DHT22;29781;49.480;8.512;2023-04-01T01:42:38;11.00;99.90
44117;DHT22;29781;49.480;8.512;2023-04-01T01:45:06;11.00;99.90
44117;DHT22;29781;49.480;8.512;2023-04-01T01:47:33;11.10;99.90
44117;DHT22;29781;49.480;8.512;2023-04-01T01:50:01;11.00;99.90
44117;DHT22;29781;49.480;8.512;2023-04-01T01:52:29;11.00;99.90
44117;DHT22;29781;49.480;8.512;2023-04-01T01:54:56;11.00;99.90
44117;DHT22;29781;49.480;8.512;2023-04-01T01:57:34;11.00;99.90
44117;DHT22;29781;49.480;8.512;2023-04-01T02:00:07;11.00;99.90
44117;DHT22;29781;49.480;8.512;2023-04-01T02:02:40;11.10;99.90
44117;DHT22;29781;49.480;8.512;2023-04-01T02:05:07;11.00;99.90
44117;DHT22;29781;49.480;8.512;2023-04-01T02:07:35;10.90;99.90
44117;DHT22;29781;49.480;8.512;2023-04-01T02:10:02;11.00;99.90
44117;DHT22;29781;49.480;8.512;2023-04-01T02:12:29;11.10;99.90
44117;DHT22;29781;49.480;8.512;2023-04-01T02:15:10;11.10;99.90
44117;DHT22;29781;49.480;8.512;2023-04-01T02:17:40;11.10;99.90
44117;DHT22;29781;49.480;8.512;2023-04-01T02:20:15;11.00;99.90
44117;DHT22;29781;49.480;8.512;2023-04-01T02:22:46;10.90;99.90
44117;DHT22;29781;49.480;8.512;2023-04-01T02:25:17;11.00;99.90
44117;DHT22;29781;49.480;8.512;2023-04-01T02:27:44;11.10;99.90
44117;DHT22;29781;49.480;8.512;2023-04-01T02:30:12;11.10;99.90
44117;DHT22;29781;49.480;8.512;2023-04-01T02:32:39;11.10;99.90
44117;DHT22;29781;49.480;8.512;2023-04-01T02:35:07;11.10;99.90
44117;DHT22;29781;49.480;8.512;2023-04-01T02:37:36;11.10;99.90
44117;DHT22;29781;49.480;8.512;2023-04-01T02:40:03;11.00;99.90
44117;DHT22;29781;49.480;8.512;2023-04-01T02:42:30;10.90;99.90
44117;DHT22;29781;49.480;8.512;2023-04-01T02:44:55;11.10;99.90
44117;DHT22;29781;49.480;8.512;2023-04-01T02:47:21;11.00;99.90
44117;DHT22;29781;49.480;8.512;2023-04-01T02:49:46;11.00;99.90
44117;DHT22;29781;49.480;8.512;2023-04-01T02:52:12;11.10;99.90
44117;DHT22;29781;49.480;8.512;2023-04-01T02:54:38;11.00;99.90
44117;DHT22;29781;49.480;8.512;2023-04-01T02:57:03;11.00;99.90
44117;DHT22;29781;49.480;8.512;2023-04-01T02:59:29;11.00;99.90
44117;DHT22;29781;49.480;8.512;2023-04-01T03:01:54;10.80;99.90
44117;DHT22;29781;49.480;8.512;2023-04-01T03:04:20;10.80;99.90
44117;DHT22;29781;49.480;8.512;2023-04-01T03:06:45;10.90;99.90
44117;DHT22;29781;49.480;8.512;2023-04-01T03:09:11;10.90;99.90
44117;DHT22;29781;49.480;8.512;2023-04-01T03:11:36;10.80;99.90
44117;DHT22;29781;49.480;8.512;2023-04-01T03:14:02;10.90;99.90
44117;DHT22;29781;49.480;8.512;2023-04-01T03:16:27;10.90;99.90
44117;DHT22;29781;49.480;8.512;2023-04-01T03:18:53;10.90;99.90
44117;DHT22;29781;49.480;8.512;2023-04-01T03:21:22;10.90;99.90
44117;DHT22;29781;49.480;8.512;2023-04-01T03:23:48;11.00;99.90
44117;DHT22;29781;49.480;8.512;2023-04-01T03:26:13;11.00;99.90
44117;DHT22;29781;49.480;8.512;2023-04-01T03:28:39;10.90;99.90
44117;DHT22;29781;49.480;8.512;2023-04-01T03:31:05;10.80;99.90
44117;DHT22;29781;49.480;8.512;2023-04-01T03:33:31;10.80;99.90
44117;DHT22;29781;49.480;8.512;2023-04-01T03:35:57;10.80;99.90
44117;DHT22;29781;49.480;8.512;2023-04-01T03:38:22;10.80;99.90
44117;DHT22;29781;49.480;8.512;2023-04-01T03:40:48;10.80;99.90
44117;DHT22;29781;49.480;8.512;2023-04-01T03:43:14;10.80;99.90
44117;DHT22;29781;49.480;8.512;2023-04-01T03:45:57;10.70;99.90
44117;DHT22;29781;49.480;8.512;2023-04-01T03:48:23;10.70;99.90
44117;DHT22;29781;49.480;8.512;2023-04-01T03:50:50;10.60;99.90
44117;DHT22;29781;49.480;8.512;2023-04-01T03:53:16;10.70;99.90
44117;DHT22;29781;49.480;8.512;2023-04-01T03:55:41;10.80;99.90
44117;DHT22;29781;49.480;8.512;2023-04-01T03:58:07;10.80;99.90
44117;DHT22;29781;49.480;8.512;2023-04-01T04:00:33;10.70;99.90
44117;DHT22;29781;49.480;8.512;2023-04-01T04:02:59;10.80;99.90
44117;DHT22;29781;49.480;8.512;2023-04-01T04:05:25;10.70;99.90
44117;DHT22;29781;49.480;8.512;2023-04-01T04:07:52;10.70;99.90
44117;DHT22;29781;49.480;8.512;2023-04-01T04:10:18;10.70;99.90
44117;DHT22;29781;49.480;8.512;2023-04-01T04:12:44;10.80;99.90
44117;DHT22;29781;49.480;8.512;2023-04-01T04:15:10;10.80;99.90
44117;DHT22;29781;49.480;8.512;2023-04-01T04:17:35;10.80;99.90
44117;DHT22;29781;49.480;8.512;2023-04-01T04:20:01;10.70;99.90
44117;DHT22;29781;49.480;8.512;2023-04-01T04:22:27;10.80;99.90
44117;DHT22;29781;49.480;8.512;2023-04-01T04:24:53;10.80;99.90
44117;DHT22;29781;49.480;8.512;2023-04-01T04:27:18;10.80;99.90
44117;DHT22;29781;49.480;8.512;2023-04-01T04:29:44;10.90;99.90
44117;DHT22;29781;49.480;8.512;2023-04-01T04:32:10;10.80;99.90
44117;DHT22;29781;49.480;8.512;2023-04-01T04:34:35;10.90;99.90
44117;DHT22;29781;49.480;8.512;2023-04-01T04:37:01;10.80;99.90
44117;DHT22;29781;49.480;8.512;2023-04-01T04:39:26;10.90;99.90
44117;DHT22;29781;49.480;8.512;2023-04-01T04:41:52;10.90;99.90
44117;DHT22;29781;49.480;8.512;2023-04-01T04:44:17;10.90;99.90
44117;DHT22;29781;49.480;8.512;2023-04-01T04:46:43;10.90;99.90
44117;DHT22;29781;49.480;8.512;2023-04-01T04:49:08;10.90;99.90
44117;DHT22;29781;49.480;8.512;2023-04-01T04:51:34;10.80;99.90
44117;DHT22;29781;49.480;8.512;2023-04-01T04:54:02;10.80;99.90
44117;DHT22;29781;49.480;8.512;2023-04-01T04:56:28;10.70;99.90
44117;DHT22;29781;49.480;8.512;2023-04-01T04:58:54;10.70;99.90
44117;DHT22;29781;49.480;8.512;2023-04-01T05:01:19;10.60;99.90
44117;DHT22;29781;49.480;8.512;2023-04-01T05:03:46;10.60;99.90
44117;DHT22;29781;49.480;8.512;2023-04-01T05:06:13;10.60;99.90
44117;DHT22;29781;49.480;8.512;2023-04-01T05:08:39;10.50;99.90
44117;DHT22;29781;49.480;8.512;2023-04-01T05:11:07;10.60;99.90
44117;DHT22;29781;49.480;8.512;2023-04-01T05:13:37;10.60;99.90
44117;DHT22;29781;49.480;8.512;2023-04-01T05:16:03;10.60;99.90
44117;DHT22;29781;49.480;8.512;2023-04-01T05:18:28;10.50;99.90
44117;DHT22;29781;49.480;8.512;2023-04-01T05:20:55;10.50;99.90
44117;DHT22;29781;49.480;8.512;2023-04-01T05:23:21;10.50;99.90
44117;DHT22;29781;49.480;8.512;2023-04-01T05:25:48;10.50;99.90
44117;DHT22;29781;49.480;8.512;2023-04-01T05:28:14;10.40;99.90
44117;DHT22;29781;49.480;8.512;2023-04-01T05:30:40;10.50;99.90
44117;DHT22;29781;49.480;8.512;2023-04-01T05:33:07;10.50;99.90
44117;DHT22;29781;49.480;8.512;2023-04-01T05:35:32;10.50;99.90
44117;DHT22;29781;49.480;8.512;2023-04-01T05:37:58;10.50;99.90
44117;DHT22;29781;49.480;8.512;2023-04-01T05:40:24;10.50;99.90
44117;DHT22;29781;49.480;8.512;2023-04-01T05:42:49;10.60;99.90
44117;DHT22;29781;49.480;8.512;2023-04-01T05:45:15;10.50;99.90
44117;DHT22;29781;49.480;8.512;2023-04-01T05:47:41;10.50;99.90
44117;DHT22;29781;49.480;8.512;2023-04-01T05:50:10;10.60;99.90
44117;DHT22;29781;49.480;8.512;2023-04-01T05:52:37;10.60;99.90
44117;DHT22;29781;49.480;8.512;2023-04-01T05:55:03;10.60;99.90
44117;DHT22;29781;49.480;8.512;2023-04-01T05:57:29;10.60;99.90
44117;DHT22;29781;49.480;8.512;2023-04-01T05:59:54;10.60;99.90
44117;DHT22;29781;49.480;8.512;2023-04-01T06:02:20;10.60;99.90
44117;DHT22;29781;49.480;8.512;2023-04-01T06:04:46;10.60;99.90
44117;DHT22;29781;49.480;8.512;2023-04-01T06:07:13;10.50;99.90
44117;DHT22;29781;49.480;8.512;2023-04-01T06:09:39;10.60;99.90
44117;DHT22;29781;49.480;8.512;2023-04-01T06:17:39;10.60;99.90
44117;DHT22;29781;49.480;8.512;2023-04-01T06:22:40;10.60;99.90
44117;DHT22;29781;49.480;8.512;2023-04-01T06:28:19;10.60;99.90
44117;DHT22;29781;49.480;8.512;2023-04-01T06:33:51;10.60;99.90
44117;DHT22;29781;49.480;8.512;2023-04-01T06:41:58;10.60;99.90
44117;DHT22;29781;49.480;8.512;2023-04-01T06:49:56;10.60;99.90
44117;DHT22;29781;49.480;8.512;2023-04-01T06:55:24;10.50;99.90
44117;DHT22;29781;49.480;8.512;2023-04-01T06:57:54;10.50;99.90
44117;DHT22;29781;49.480;8.512;2023-04-01T07:00:41;10.60;99.90
44117;DHT22;29781;49.480;8.512;2023-04-01T07:03:29;10.60;99.90
44117;DHT22;29781;49.480;8.512;2023-04-01T07:06:01;10.70;99.90
44117;DHT22;29781;49.480;8.512;2023-04-01T07:08:28;10.80;99.90
44117;DHT22;29781;49.480;8.512;2023-04-01T07:11:00;10.70;99.90
44117;DHT22;29781;49.480;8.512;2023-04-01T07:13:34;10.70;99.90
44117;DHT22;29781;49.480;8.512;2023-04-01T07:16:15;10.80;99.90
44117;DHT22;29781;49.480;8.512;2023-04-01T07:21:34;10.70;99.90
44117;DHT22;29781;49.480;8.512;2023-04-01T07:24:05;10.70;99.90
44117;DHT22;29781;49.480;8.512;2023-04-01T07:26:31;10.70;99.90
44117;DHT22;29781;49.480;8.512;2023-04-01T07:28:58;10.70;99.90
44117;DHT22;29781;49.480;8.512;2023-04-01T07:31:45;10.70;99.90
44117;DHT22;29781;49.480;8.512;2023-04-01T07:34:25;10.80;99.90
44117;DHT22;29781;49.480;8.512;2023-04-01T07:47:38;10.80;99.90
44117;DHT22;29781;49.480;8.512;2023-04-01T07:50:28;10.90;99.90
44117;DHT22;29781;49.480;8.512;2023-04-01T07:53:08;10.90;99.90
44117;DHT22;29781;49.480;8.512;2023-04-01T07:56:11;10.90;99.90
44117;DHT22;29781;49.480;8.512;2023-04-01T07:58:56;10.80;99.90
44117;DHT22;29781;49.480;8.512;2023-04-01T08:05:00;10.60;99.90
44117;DHT22;29781;49.480;8.512;2023-04-01T08:11:04;11.00;99.90
44117;DHT22;29781;49.480;8.512;2023-04-01T08:14:24;10.90;99.90
44117;DHT22;29781;49.480;8.512;2023-04-01T08:16:50;11.00;99.90
44117;DHT22;29781;49.480;8.512;2023-04-01T08:19:42;10.90;99.90
44117;DHT22;29781;49.480;8.512;2023-04-01T08:22:26;10.90;99.90
44117;DHT22;29781;49.480;8.512;2023-04-01T08:24:55;10.90;99.90
44117;DHT22;29781;49.480;8.512;2023-04-01T08:30:17;10.80;99.90
44117;DHT22;29781;49.480;8.512;2023-04-01T08:33:06;10.80;99.90
44117;DHT22;29781;49.480;8.512;2023-04-01T08:36:13;10.70;99.90
44117;DHT22;29781;49.480;8.512;2023-04-01T08:38:39;10.60;99.90
44117;DHT22;29781;49.480;8.512;2023-04-01T08:44:11;10.60;99.90
44117;DHT22;29781;49.480;8.512;2023-04-01T08:46:57;10.70;99.90
44117;DHT22;29781;49.480;8.512;2023-04-01T08:49:56;10.70;99.90
44117;DHT22;29781;49.480;8.512;2023-04-01T08:52:35;10.70;99.90
44117;DHT22;29781;49.480;8.512;2023-04-01T09:01:33;10.80;99.90
44117;DHT22;29781;49.480;8.512;2023-04-01T09:10:11;10.90;99.90
44117;DHT22;29781;49.480;8.512;2023-04-01T09:13:07;10.80;99.90
44117;DHT22;29781;49.480;8.512;2023-04-01T09:21:24;10.80;99.90
44117;DHT22;29781;49.480;8.512;2023-04-01T09:24:02;10.90;99.90
44117;DHT22;29781;49.480;8.512;2023-04-01T09:27:10;10.90;99.90
44117;DHT22;29781;49.480;8.512;2023-04-01T09:32:47;10.80;99.90
44117;DHT22;29781;49.480;8.512;2023-04-01T09:41:30;10.80;99.90
44117;DHT22;29781;49.480;8.512;2023-04-01T09:52:10;11.10;99.90
44117;DHT22;29781;49.480;8.512;2023-04-01T09:55:06;11.00;99.90
44117;DHT22;29781;49.480;8.512;2023-04-01T09:57:54;11.00;99.90
44117;DHT22;29781;49.480;8.512;2023-04-01T10:06:25;11.20;99.90
44117;DHT22;29781;49.480;8.512;2023-04-01T10:18:08;11.20;99.90
44117;DHT22;29781;49.480;8.512;2023-04-01T10:20:58;11.20;99.90
44117;DHT22;29781;49.480;8.512;2023-04-01T10:37:26;11.30;99.90
44117;DHT22;29781;49.480;8.512;2023-04-01T10:42:55;11.30;99.90
44117;DHT22;29781;49.480;8.512;2023-04-01T10:45:57;11.30;99.90
44117;DHT22;29781;49.480;8.512;2023-04-01T11:00:26;11.40;99.90
44117;DHT22;29781;49.480;8.512;2023-04-01T11:08:33;11.50;99.90
44117;DHT22;29781;49.480;8.512;2023-04-01T11:11:35;11.60;99.90
44117;DHT22;29781;49.480;8.512;2023-04-01T11:28:37;11.60;99.90
44117;DHT22;29781;49.480;8.512;2023-04-01T11:33:56;11.70;99.90
44117;DHT22;29781;49.480;8.512;2023-04-01T11:36:35;11.60;99.90
44117;DHT22;29781;49.480;8.512;2023-04-01T11:39:42;11.70;99.90
44117;DHT22;29781;49.480;8.512;2023-04-01T11:42:24;11.60;99.90
44117;DHT22;29781;49.480;8.512;2023-04-01T11:50:55;11.80;99.90
44117;DHT22;29781;49.480;8.512;2023-04-01T11:56:38;11.70;99.90
44117;DHT22;29781;49.480;8.512;2023-04-01T12:05:19;11.90;99.90
44117;DHT22;29781;49.480;8.512;2023-04-01T12:07:59;12.00;99.90
44117;DHT22;29781;49.480;8.512;2023-04-01T12:10:46;12.00;99.90
44117;DHT22;29781;49.480;8.512;2023-04-01T12:21:00;12.20;99.90
44117;DHT22;29781;49.480;8.512;2023-04-01T12:30:02;12.40;99.90
44117;DHT22;29781;49.480;8.512;2023-04-01T12:36:17;12.30;99.90
44117;DHT22;29781;49.480;8.512;2023-04-01T12:41:48;12.30;99.90
44117;DHT22;29781;49.480;8.512;2023-04-01T12:47:30;12.40;99.90
44117;DHT22;29781;49.480;8.512;2023-04-01T12:53:17;12.40;99.90
44117;DHT22;29781;49.480;8.512;2023-04-01T12:55:49;12.50;99.90
44117;DHT22;29781;49.480;8.512;2023-04-01T12:59:44;12.50;99.90
44117;DHT22;29781;49.480;8.512;2023-04-01T13:01:52;12.60;99.90
44117;DHT22;29781;49.480;8.512;2023-04-01T13:04:47;12.50;99.90
44117;DHT22;29781;49.480;8.512;2023-04-01T13:07:26;12.50;99.90
44117;DHT22;29781;49.480;8.512;2023-04-01T13:12:49;12.40;99.90
44117;DHT22;29781;49.480;8.512;2023-04-01T13:15:40;12.40;99.90
44117;DHT22;29781;49.480;8.512;2023-04-01T13:18:22;12.50;99.90
44117;DHT22;29781;49.480;8.512;2023-04-01T13:32:14;12.40;99.90
44117;DHT22;29781;49.480;8.512;2023-04-01T13:35:03;12.40;99.90
44117;DHT22;29781;49.480;8.512;2023-04-01T13:40:21;12.40;99.90
44117;DHT22;29781;49.480;8.512;2023-04-01T13:42:54;12.50;99.90
44117;DHT22;29781;49.480;8.512;2023-04-01T13:51:51;12.60;99.90
44117;DHT22;29781;49.480;8.512;2023-04-01T14:05:38;12.50;99.90
44117;DHT22;29781;49.480;8.512;2023-04-01T14:08:21;12.60;99.90
44117;DHT22;29781;49.480;8.512;2023-04-01T14:10:59;12.40;99.90
44117;DHT22;29781;49.480;8.512;2023-04-01T14:13:52;12.40;99.90
44117;DHT22;29781;49.480;8.512;2023-04-01T14:21:57;12.40;99.90
44117;DHT22;29781;49.480;8.512;2023-04-01T14:30:26;12.40;99.90
44117;DHT22;29781;49.480;8.512;2023-04-01T14:33:21;12.40;99.90
44117;DHT22;29781;49.480;8.512;2023-04-01T14:41:44;12.40;99.90
44117;DHT22;29781;49.480;8.512;2023-04-01T14:44:32;12.30;99.90
44117;DHT22;29781;49.480;8.512;2023-04-01T14:49:52;12.30;99.90
44117;DHT22;29781;49.480;8.512;2023-04-01T14:54:48;12.40;99.90
44117;DHT22;29781;49.480;8.512;2023-04-01T14:57:15;12.40;99.90
44117;DHT22;29781;49.480;8.512;2023-04-01T15:05:39;12.30;99.90
44117;DHT22;29781;49.480;8.512;2023-04-01T15:21:25;12.10;99.90
44117;DHT22;29781;49.480;8.512;2023-04-01T15:32:25;12.30;99.90
44117;DHT22;29781;49.480;8.512;2023-04-01T15:35:26;12.30;99.90
44117;DHT22;29781;49.480;8.512;2023-04-01T15:38:21;12.20;99.90
44117;DHT22;29781;49.480;8.512;2023-04-01T15:41:15;12.30;99.90
44117;DHT22;29781;49.480;8.512;2023-04-01T15:43:49;12.40;99.90
44117;DHT22;29781;49.480;8.512;2023-04-01T15:46:39;12.40;99.90
44117;DHT22;29781;49.480;8.512;2023-04-01T15:52:21;12.40;99.90
44117;DHT22;29781;49.480;8.512;2023-04-01T15:55:26;12.40;99.90
44117;DHT22;29781;49.480;8.512;2023-04-01T15:58:06;12.40;99.90
44117;DHT22;29781;49.480;8.512;2023-04-01T16:06:16;12.50;99.90
44117;DHT22;29781;49.480;8.512;2023-04-01T16:09:03;12.40;99.90
44117;DHT22;29781;49.480;8.512;2023-04-01T16:18:01;12.30;99.90
44117;DHT22;29781;49.480;8.512;2023-04-01T16:20:15;12.30;99.90
44117;DHT22;29781;49.480;8.512;2023-04-01T16:23:02;12.40;99.90
44117;DHT22;29781;49.480;8.512;2023-04-01T16:28:11;12.20;99.90
44117;DHT22;29781;49.480;8.512;2023-04-01T16:30:55;12.20;99.90
44117;DHT22;29781;49.480;8.512;2023-04-01T16:33:32;12.20;99.90
44117;DHT22;29781;49.480;8.512;2023-04-01T16:36:01;12.20;99.90
44117;DHT22;29781;49.480;8.512;2023-04-01T16:38:33;12.20;99.90
44117;DHT22;29781;49.480;8.512;2023-04-01T16:51:32;12.20;99.90
44117;DHT22;29781;49.480;8.512;2023-04-01T17:04:47;12.30;99.90
44117;DHT22;29781;49.480;8.512;2023-04-01T17:07:20;12.20;99.90
44117;DHT22;29781;49.480;8.512;2023-04-01T17:30:08;12.00;99.90
44117;DHT22;29781;49.480;8.512;2023-04-01T17:33:09;12.00;99.90
44117;DHT22;29781;49.480;8.512;2023-04-01T17:35:59;12.10;99.90
44117;DHT22;29781;49.480;8.512;2023-04-01T17:44:10;12.20;99.90
44117;DHT22;29781;49.480;8.512;2023-04-01T17:49:37;12.10;99.90
44117;DHT22;29781;49.480;8.512;2023-04-01T17:52:23;12.10;99.90
44117;DHT22;29781;49.480;8.512;2023-04-01T17:58:00;12.00;99.90
44117;DHT22;29781;49.480;8.512;2023-04-01T18:00:39;11.90;99.90
44117;DHT22;29781;49.480;8.512;2023-04-01T18:06:18;11.80;99.90
44117;DHT22;29781;49.480;8.512;2023-04-01T18:22:45;11.70;99.90
44117;DHT22;29781;49.480;8.512;2023-04-01T18:25:38;11.60;99.90
44117;DHT22;29781;49.480;8.512;2023-04-01T18:30:40;11.60;99.90
44117;DHT22;29781;49.480;8.512;2023-04-01T18:33:26;11.60;99.90
44117;DHT22;29781;49.480;8.512;2023-04-01T18:38:53;11.50;99.90
44117;DHT22;29781;49.480;8.512;2023-04-01T18:44:31;11.50;99.90
44117;DHT22;29781;49.480;8.512;2023-04-01T18:47:07;11.50;99.90
44117;DHT22;29781;49.480;8.512;2023-04-01T18:52:36;11.60;99.90
44117;DHT22;29781;49.480;8.512;2023-04-01T19:00:25;11.30;99.90
44117;DHT22;29781;49.480;8.512;2023-04-01T19:03:00;11.40;99.90
44117;DHT22;29781;49.480;8.512;2023-04-01T19:05:36;11.40;99.90
44117;DHT22;29781;49.480;8.512;2023-04-01T19:08:32;11.40;99.90
44117;DHT22;29781;49.480;8.512;2023-04-01T19:11:43;11.50;99.90
44117;DHT22;29781;49.480;8.512;2023-04-01T19:20:13;11.40;99.90
44117;DHT22;29781;49.480;8.512;2023-04-01T19:25:51;11.40;99.90
44117;DHT22;29781;49.480;8.512;2023-04-01T19:28:45;11.30;99.90
44117;DHT22;29781;49.480;8.512;2023-04-01T19:31:30;11.30;99.90
44117;DHT22;29781;49.480;8.512;2023-04-01T19:34:13;11.30;99.90
44117;DHT22;29781;49.480;8.512;2023-04-01T19:42:34;11.30;99.90
44117;DHT22;29781;49.480;8.512;2023-04-01T19:50:42;11.30;99.90
44117;DHT22;29781;49.480;8.512;2023-04-01T19:58:52;11.40;99.90
44117;DHT22;29781;49.480;8.512;2023-04-01T20:01:30;11.50;99.90
44117;DHT22;29781;49.480;8.512;2023-04-01T20:06:57;11.60;99.90
44117;DHT22;29781;49.480;8.512;2023-04-01T20:12:21;11.60;99.90
44117;DHT22;29781;49.480;8.512;2023-04-01T20:14:53;11.50;99.90
44117;DHT22;29781;49.480;8.512;2023-04-01T20:17:43;11.50;99.90
44117;DHT22;29781;49.480;8.512;2023-04-01T20:25:49;11.50;99.90
44117;DHT22;29781;49.480;8.512;2023-04-01T20:33:47;11.40;99.90
44117;DHT22;29781;49.480;8.512;2023-04-01T20:36:34;11.40;99.90
44117;DHT22;29781;49.480;8.512;2023-04-01T20:39:10;11.40;99.90
44117;DHT22;29781;49.480;8.512;2023-04-01T20:44:41;11.40;99.90
44117;DHT22;29781;49.480;8.512;2023-04-01T20:47:40;11.50;99.90
44117;DHT22;29781;49.480;8.512;2023-04-01T20:50:28;11.40;99.90
44117;DHT22;29781;49.480;8.512;2023-04-01T20:55:47;11.20;99.90
44117;DHT22;29781;49.480;8.512;2023-04-01T20:58:37;11.20;99.90
44117;DHT22;29781;49.480;8.512;2023-04-01T21:01:34;11.10;99.90
44117;DHT22;29781;49.480;8.512;2023-04-01T21:07:10;11.10;99.90
44117;DHT22;29781;49.480;8.512;2023-04-01T21:12:56;11.00;99.90
44117;DHT22;29781;49.480;8.512;2023-04-01T21:15:33;11.00;99.90
44117;DHT22;29781;49.480;8.512;2023-04-01T21:18:29;11.10;99.90
44117;DHT22;29781;49.480;8.512;2023-04-01T21:27:07;11.10;99.90
44117;DHT22;29781;49.480;8.512;2023-04-01T21:33:21;10.90;99.90
44117;DHT22;29781;49.480;8.512;2023-04-01T21:36:17;11.00;99.90
44117;DHT22;29781;49.480;8.512;2023-04-01T21:39:14;11.00;99.90
44117;DHT22;29781;49.480;8.512;2023-04-01T21:58:38;11.00;99.90
44117;DHT22;29781;49.480;8.512;2023-04-01T22:04:01;10.90;99.90
44117;DHT22;29781;49.480;8.512;2023-04-01T22:06:40;10.90;99.90
44117;DHT22;29781;49.480;8.512;2023-04-01T22:09:39;10.90;99.90
44117;DHT22;29781;49.480;8.512;2023-04-01T22:12:18;10.90;99.90
44117;DHT22;29781;49.480;8.512;2023-04-01T22:15:04;10.70;99.90
44117;DHT22;29781;49.480;8.512;2023-04-01T22:17:43;10.70;99.90
44117;DHT22;29781;49.480;8.512;2023-04-01T22:25:51;10.80;99.90
44117;DHT22;29781;49.480;8.512;2023-04-01T22:28:23;10.80;99.90
44117;DHT22;29781;49.480;8.512;2023-04-01T22:30:58;11.00;99.90
44117;DHT22;29781;49.480;8.512;2023-04-01T22:42:12;10.90;99.90
44117;DHT22;29781;49.480;8.512;2023-04-01T22:44:47;10.80;99.90
44117;DHT22;29781;49.480;8.512;2023-04-01T22:47:54;10.70;99.90
44117;DHT22;29781;49.480;8.512;2023-04-01T22:50:28;10.80;99.90
44117;DHT22;29781;49.480;8.512;2023-04-01T22:53:24;10.70;99.90
44117;DHT22;29781;49.480;8.512;2023-04-01T22:55:54;10.80;99.90
44117;DHT22;29781;49.480;8.512;2023-04-01T22:58:40;10.80;99.90
44117;DHT22;29781;49.480;8.512;2023-04-01T23:01:13;10.80;99.90
44117;DHT22;29781;49.480;8.512;2023-04-01T23:03:41;10.80;99.90
44117;DHT22;29781;49.480;8.512;2023-04-01T23:06:17;10.80;99.90
44117;DHT22;29781;49.480;8.512;2023-04-01T23:11:52;11.00;99.90
44117;DHT22;29781;49.480;8.512;2023-04-01T23:20:00;11.00;99.90
44117;DHT22;29781;49.480;8.512;2023-04-01T23:31:00;10.90;99.90
44117;DHT22;29781;49.480;8.512;2023-04-01T23:33:30;10.80;99.90
44117;DHT22;29781;49.480;8.512;2023-04-01T23:36:00;10.80;99.90
44117;DHT22;29781;49.480;8.512;2023-04-01T23:38:37;10.80;99.90
44117;DHT22;29781;49.480;8.512;2023-04-01T23:41:05;10.70;99.90
44117;DHT22;29781;49.480;8.512;2023-04-01T23:43:37;10.70;99.90
44117;DHT22;29781;49.480;8.512;2023-04-01T23:46:05;10.60;99.90
44117;DHT22;29781;49.480;8.512;2023-04-01T23:48:43;10.60;99.90
44117;DHT22;29781;49.480;8.512;2023-04-01T23:51:27;10.50;99.90
44117;DHT22;29781;49.480;8.512;2023-04-01T23:54:03;10.50;99.90
44117;DHT22;29781;49.480;8.512;2023-04-01T23:56:37;10.50;99.90
44117;DHT22;29781;49.480;8.512;2023-04-01T23:59:02;10.40;99.90
